Noruega — CSDJ — position and weather

sailwx.info

Track history (hours):
 
Tides and Currents Weather Stations Pressure Air Temp Water Temp Dewpoint Dewpoint Depression Visibility Wind Speed Wind Dir Waves Ship Positions

Oceanographic research ship Noruega (Portugal)

Detailed information on ship capabilities available from University of Delaware's Ocean Information Center.

Last reported at 2018-Jun-24 09:00 UTC. Time now 2018-Jun-24 09:18 UTC.
Position N 38°42' W 009°14'.

Length 47 m; draft 5.2 m.

Type: Neutral ship in war zone. MMSI: 263601000.

Date/timePositionNaut miles runAvg speedWind from/ knotsBaromVisibWave heightAir tempDewpointWater temp
2018-Jun-24 09:00N 38°42' W 009°14'0 0.0
2018-Jun-24 08:29N 38°42' W 009°14'0 0.0
2018-Jun-24 07:59N 38°42' W 009°14'0 0.0
2018-Jun-24 07:29N 38°42' W 009°14'0 0.0
2018-Jun-24 07:00N 38°42' W 009°14'0 0.0
2018-Jun-24 06:28N 38°42' W 009°14'0 0.0
2018-Jun-24 06:00N 38°42' W 009°14'0 0.0
2018-Jun-24 05:28N 38°42' W 009°14'0 0.0
2018-Jun-24 05:00N 38°42' W 009°14'0 0.0
2018-Jun-24 04:30N 38°42' W 009°14'0 0.0
2018-Jun-24 04:00N 38°42' W 009°14'0 0.0
2018-Jun-24 03:30N 38°42' W 009°14'0 0.0
2018-Jun-24 03:00N 38°42' W 009°14'0 0.0
2018-Jun-24 02:27N 38°42' W 009°14'0 0.0
2018-Jun-24 01:58N 38°42' W 009°14'0 0.0
2018-Jun-24 01:30N 38°42' W 009°14'0 0.0
2018-Jun-24 00:58N 38°42' W 009°14'0 0.0
2018-Jun-24 00:22N 38°42' W 009°14'0 0.0
2018-Jun-24 00:00N 38°42' W 009°14'0 0.0
2018-Jun-23 23:22N 38°42' W 009°14'0 0.0
2018-Jun-23 23:00N 38°42' W 009°14'0 0.0
2018-Jun-23 22:27N 38°42' W 009°14'0 0.0
2018-Jun-23 22:00N 38°42' W 009°14'0 0.0
2018-Jun-23 21:23N 38°42' W 009°14'0 0.0
2018-Jun-23 20:59N 38°42' W 009°14'0 0.0
2018-Jun-23 20:28N 38°42' W 009°14'0 0.0
2018-Jun-23 20:00N 38°42' W 009°14'0 0.0
2018-Jun-23 19:25N 38°42' W 009°14'0 0.0
2018-Jun-23 18:57N 38°42' W 009°14'0 0.0
2018-Jun-23 18:25N 38°42' W 009°14'0 0.0
2018-Jun-23 17:17N 38°42' W 009°14'0 0.0
2018-Jun-23 16:48N 38°42' W 009°14'0 0.0
2018-Jun-23 16:30N 38°42' W 009°14'0 0.0
2018-Jun-23 15:59N 38°42' W 009°14'0 0.0
2018-Jun-23 15:26N 38°42' W 009°14'0 0.0
2018-Jun-23 14:53N 38°42' W 009°14'0 0.0
2018-Jun-23 14:29N 38°42' W 009°14'0 0.0
2018-Jun-23 13:59N 38°42' W 009°14'0 0.0
2018-Jun-23 13:29N 38°42' W 009°14'0 0.0
2018-Jun-23 13:00N 38°42' W 009°14'0 0.0
2018-Jun-23 12:29N 38°42' W 009°14'0 0.0
2018-Jun-23 12:00N 38°42' W 009°14'3 5.2
2018-Jun-23 11:29N 38°41' W 009°17'4 9.0
2018-Jun-23 11:00N 38°38' W 009°21'4 6.9
2018-Jun-23 10:28N 38°39' W 009°26'2 4.9
2018-Jun-23 10:00N 38°41' W 009°24'0 0.1
2018-Jun-23 09:30N 38°41' W 009°24'0 0.0
2018-Jun-23 09:00N 38°41' W 009°24'0 0.0
2018-Jun-23 08:30N 38°41' W 009°24'0 0.0
2018-Jun-23 08:00N 38°41' W 009°24'0 0.0
2018-Jun-23 07:30N 38°41' W 009°24'0 0.0
2018-Jun-23 07:00N 38°41' W 009°24'0 0.0
2018-Jun-23 06:30N 38°41' W 009°24'0 0.1
2018-Jun-23 06:00N 38°41' W 009°24'2 3.7
2018-Jun-23 05:30N 38°39' W 009°25'1 1.7
2018-Jun-23 05:00N 38°39' W 009°26'1 1.6
2018-Jun-23 04:30N 38°38' W 009°26'1 1.7
2018-Jun-23 04:00N 38°38' W 009°27'0 0.4
2018-Jun-23 03:30N 38°39' W 009°28'0 0.2
2018-Jun-23 03:00N 38°39' W 009°27'0 0.6
2018-Jun-23 02:30N 38°39' W 009°27'0 0.7
2018-Jun-23 02:00N 38°39' W 009°27'1 1.0
2018-Jun-23 01:30N 38°39' W 009°27'1 2.0
2018-Jun-23 01:00N 38°38' W 009°25'1 1.4
2018-Jun-23 00:30N 38°39' W 009°26'1 1.2
2018-Jun-23 00:00N 38°39' W 009°26'2 4.3
2018-Jun-22 23:30N 38°38' W 009°25'2 4.8
2018-Jun-22 23:00N 38°36' W 009°22'3 6.1
2018-Jun-22 22:30N 38°35' W 009°18'1 2.8
2018-Jun-22 22:00N 38°36' W 009°17'2 3.6
2018-Jun-22 21:28N 38°36' W 009°19'2 4.1
2018-Jun-22 21:00N 38°36' W 009°17'2 3.8
2018-Jun-22 20:29N 38°36' W 009°19'1 2.8
2018-Jun-22 19:58N 38°36' W 009°17'1 2.3
2018-Jun-22 19:30N 38°35' W 009°19'1 1.9
2018-Jun-22 18:59N 38°35' W 009°17'1 1.2
2018-Jun-22 18:29N 38°35' W 009°18'1 1.1
2018-Jun-22 17:57N 38°35' W 009°19'0 0.6
2018-Jun-22 17:30N 38°35' W 009°19'0 0.8
2018-Jun-22 17:00N 38°35' W 009°18'2 4.4
2018-Jun-22 16:30N 38°33' W 009°18'0 0.7
2018-Jun-22 16:00N 38°33' W 009°18'1 2.7
2018-Jun-22 15:30N 38°34' W 009°19'2 3.7
2018-Jun-22 14:59N 38°36' W 009°19'2 2.9
2018-Jun-22 14:27N 38°38' W 009°18'1 3.0
2018-Jun-22 13:58N 38°36' W 009°18'2 3.1
2018-Jun-22 13:28N 38°35' W 009°17'1 3.0
2018-Jun-22 12:58N 38°36' W 009°17'0 0.6
2018-Jun-22 12:29N 38°36' W 009°17'0 0.6
2018-Jun-22 12:00N 38°36' W 009°17'0 0.7
2018-Jun-22 11:25N 38°36' W 009°17'0 1.0
2018-Jun-22 11:00N 38°36' W 009°17'0 0.6
2018-Jun-22 10:30N 38°36' W 009°18'1 1.7
2018-Jun-22 09:59N 38°35' W 009°18'1 2.3
2018-Jun-22 09:28N 38°36' W 009°18'2 3.4
2018-Jun-22 09:00N 38°35' W 009°18'2 3.3
2018-Jun-22 08:30N 38°36' W 009°19'1 2.1
2018-Jun-22 08:00N 38°35' W 009°19'0 0.6
2018-Jun-22 07:29N 38°35' W 009°19'1 1.5
2018-Jun-22 07:00N 38°35' W 009°18'0 0.3
2018-Jun-22 06:28N 38°36' W 009°18'1 1.1
2018-Jun-22 05:59N 38°36' W 009°18'1 1.1
2018-Jun-22 05:30N 38°36' W 009°18'1 2.3
2018-Jun-22 04:59N 38°36' W 009°19'2 3.9
2018-Jun-22 04:30N 38°36' W 009°17'2 4.6
2018-Jun-22 04:00N 38°36' W 009°20'3 4.9
2018-Jun-22 03:28N 38°36' W 009°16'1 1.2
2018-Jun-22 03:01N 38°36' W 009°17'2 3.5
2018-Jun-22 02:30N 38°36' W 009°19'1 2.3
2018-Jun-22 01:56N 38°36' W 009°17'1 1.3
2018-Jun-22 01:25N 38°36' W 009°18'1 1.2
2018-Jun-22 01:00N 38°36' W 009°18'0 0.7
2018-Jun-22 00:30N 38°36' W 009°18'0 0.2
2018-Jun-21 23:59N 38°36' W 009°18'0 0.3
2018-Jun-21 23:26N 38°36' W 009°18'1 1.4
2018-Jun-21 22:58N 38°35' W 009°19'1 2.0
2018-Jun-21 22:30N 38°35' W 009°17'1 2.0
2018-Jun-21 22:00N 38°35' W 009°19'1 1.3
2018-Jun-21 21:30N 38°35' W 009°18'1 1.7
2018-Jun-21 20:59N 38°34' W 009°18'0 0.0
2018-Jun-21 20:30N 38°34' W 009°18'1 3.0
2018-Jun-21 20:00N 38°35' W 009°19'1 2.9
2018-Jun-21 19:30N 38°36' W 009°20'1 1.9
2018-Jun-21 19:00N 38°36' W 009°19'1 2.7
2018-Jun-21 18:30N 38°35' W 009°19'2 3.9
2018-Jun-21 18:00N 38°36' W 009°19'2 3.0
2018-Jun-21 17:30N 38°35' W 009°19'1 2.4
2018-Jun-21 16:59N 38°36' W 009°18'1 1.3
2018-Jun-21 16:31N 38°36' W 009°18'0 0.6
2018-Jun-21 16:00N 38°36' W 009°18'1 2.3
2018-Jun-21 15:30N 38°36' W 009°17'1 1.6
2018-Jun-21 15:00N 38°36' W 009°17'2 3.7
2018-Jun-21 14:30N 38°36' W 009°20'1 1.9
2018-Jun-21 14:00N 38°36' W 009°19'2 3.3
2018-Jun-21 13:30N 38°36' W 009°17'1 1.5
2018-Jun-21 13:00N 38°35' W 009°17'2 3.6
2018-Jun-21 12:29N 38°35' W 009°20'1 2.4
2018-Jun-21 11:59N 38°35' W 009°18'2 3.0
2018-Jun-21 11:29N 38°36' W 009°16'1 2.7
2018-Jun-21 11:00N 38°36' W 009°18'1 2.6
2018-Jun-21 10:29N 38°36' W 009°20'1 2.7
2018-Jun-21 09:59N 38°36' W 009°18'1 3.0
2018-Jun-21 09:30N 38°36' W 009°16'2 3.1
2018-Jun-21 09:00N 38°36' W 009°18'2 3.3
2018-Jun-21 08:30N 38°36' W 009°20'1 2.2
2018-Jun-21 08:00N 38°36' W 009°22'1 2.1
2018-Jun-21 07:30N 38°35' W 009°20'2 3.2
2018-Jun-21 07:00N 38°34' W 009°19'1 2.7
2018-Jun-21 06:30N 38°34' W 009°17'1 1.2
2018-Jun-21 06:00N 38°34' W 009°17'1 1.0
2018-Jun-21 05:30N 38°33' W 009°17'1 2.8
2018-Jun-21 05:00N 38°32' W 009°17'2 3.2
2018-Jun-21 04:30N 38°30' W 009°17'2 4.0
2018-Jun-21 04:00N 38°28' W 009°17'3 6.1
2018-Jun-21 03:30N 38°25' W 009°16'3 5.9
2018-Jun-21 03:00N 38°22' W 009°15'3 5.9
2018-Jun-21 02:30N 38°19' W 009°14'3 5.8
2018-Jun-21 01:59N 38°17' W 009°13'3 5.8
2018-Jun-21 01:30N 38°14' W 009°11'3 6.0
2018-Jun-21 01:00N 38°11' W 009°10'3 5.9
2018-Jun-21 00:30N 38°09' W 009°08'3 5.8
2018-Jun-21 00:00N 38°06' W 009°06'3 6.2
2018-Jun-20 23:30N 38°04' W 009°04'3 6.4
2018-Jun-20 23:00N 38°01' W 009°02'3 6.6
2018-Jun-20 22:30N 37°58' W 008°60'3 6.2
2018-Jun-20 22:00N 37°55' W 008°59'3 6.1
2018-Jun-20 21:30N 37°52' W 008°57'3 6.4
2018-Jun-20 21:00N 37°50' W 008°55'3 6.1
2018-Jun-20 20:30N 37°47' W 008°53'3 5.9
2018-Jun-20 20:00N 37°45' W 008°51'2 3.2
2018-Jun-20 19:31N 37°43' W 008°50'3 4.7
2018-Jun-20 18:58N 37°41' W 008°50'2 4.8
2018-Jun-20 18:30N 37°43' W 008°50'2 4.7
2018-Jun-20 18:00N 37°41' W 008°50'2 4.9
2018-Jun-20 17:30N 37°43' W 008°50'2 4.7
2018-Jun-20 17:01N 37°45' W 008°50'2 3.5
2018-Jun-20 16:30N 37°47' W 008°50'2 3.7
2018-Jun-20 16:01N 37°49' W 008°51'2 4.7
2018-Jun-20 15:30N 37°51' W 008°51'2 4.6
2018-Jun-20 15:00N 37°53' W 008°51'1 2.2
2018-Jun-20 14:30N 37°54' W 008°52'3 5.0
2018-Jun-20 14:00N 37°52' W 008°52'2 4.7
2018-Jun-20 13:30N 37°49' W 008°52'1 2.1
2018-Jun-20 13:00N 37°48' W 008°52'2 3.4
2018-Jun-20 12:30N 37°48' W 008°54'1 2.8
2018-Jun-20 12:00N 37°48' W 008°56'2 3.4
2018-Jun-20 11:30N 37°48' W 008°58'2 3.4
2018-Jun-20 11:00N 37°48' W 008°60'2 3.3
2018-Jun-20 10:30N 37°48' W 009°02'1 2.4
2018-Jun-20 10:00N 37°48' W 009°03'2 4.0
2018-Jun-20 09:30N 37°47' W 009°01'2 3.7
2018-Jun-20 09:00N 37°46' W 008°59'2 3.9
2018-Jun-20 08:30N 37°46' W 008°57'2 3.5
2018-Jun-20 08:00N 37°46' W 008°54'2 3.5
2018-Jun-20 07:30N 37°46' W 008°52'1 2.9
2018-Jun-20 07:01N 37°46' W 008°50'0 0.4
2018-Jun-20 06:30N 37°46' W 008°50'1 1.7
2018-Jun-20 05:59N 37°47' W 008°50'1 2.5
2018-Jun-20 05:30N 37°46' W 008°50'1 2.5
2018-Jun-20 05:00N 37°47' W 008°50'1 2.5
2018-Jun-20 04:30N 37°46' W 008°50'1 2.6
2018-Jun-20 04:00N 37°47' W 008°51'1 2.1
2018-Jun-20 03:30N 37°46' W 008°51'1 1.8
2018-Jun-20 03:00N 37°47' W 008°51'0 0.7
2018-Jun-20 02:30N 37°47' W 008°51'0 0.8
2018-Jun-20 02:00N 37°47' W 008°51'1 1.7
2018-Jun-20 01:30N 37°46' W 008°51'2 4.4
2018-Jun-20 01:00N 37°49' W 008°52'3 5.2
2018-Jun-20 00:29N 37°46' W 008°51'2 4.8
2018-Jun-20 00:00N 37°48' W 008°52'0 0.3
2018-Jun-19 23:30N 37°48' W 008°52'3 5.1
2018-Jun-19 23:01N 37°46' W 008°52'3 5.2
2018-Jun-19 22:30N 37°48' W 008°52'0 1.0
2018-Jun-19 22:00N 37°49' W 008°52'3 5.0
2018-Jun-19 21:27N 37°46' W 008°52'2 4.3
2018-Jun-19 21:00N 37°46' W 008°54'3 5.2
2018-Jun-19 20:30N 37°46' W 008°58'2 4.3
2018-Jun-19 20:00N 37°45' W 009°00'1 1.1
2018-Jun-19 19:30N 37°45' W 009°01'1 2.2
2018-Jun-19 19:00N 37°45' W 009°00'2 3.8
2018-Jun-19 18:30N 37°47' W 009°00'2 3.6
2018-Jun-19 18:00N 37°49' W 009°00'2 3.5
2018-Jun-19 17:30N 37°51' W 008°60'2 3.7
2018-Jun-19 17:01N 37°53' W 008°60'2 3.7
2018-Jun-19 16:30N 37°55' W 008°60'2 3.6
2018-Jun-19 16:00N 37°56' W 008°60'2 3.5
2018-Jun-19 15:30N 37°58' W 009°00'2 3.5
2018-Jun-19 15:00N 37°60' W 008°60'1 2.0
2018-Jun-19 14:30N 38°01' W 008°59'2 3.6
2018-Jun-19 14:00N 38°01' W 008°57'1 2.7
2018-Jun-19 13:30N 38°00' W 008°55'2 3.1
2018-Jun-19 13:00N 37°59' W 008°55'2 3.0
2018-Jun-19 12:30N 37°57' W 008°56'1 2.9
2018-Jun-19 12:00N 37°56' W 008°55'2 3.0
2018-Jun-19 11:30N 37°54' W 008°55'2 3.3
2018-Jun-19 11:00N 37°53' W 008°55'2 3.4
2018-Jun-19 10:30N 37°51' W 008°55'2 3.4
2018-Jun-19 10:00N 37°49' W 008°55'2 3.3
2018-Jun-19 09:30N 37°48' W 008°55'1 2.8
2018-Jun-19 09:00N 37°46' W 008°55'1 2.6
2018-Jun-19 08:31N 37°46' W 008°54'1 2.5
2018-Jun-19 08:00N 37°45' W 008°52'1 1.9
2018-Jun-19 07:30N 37°45' W 008°51'1 2.4
2018-Jun-19 07:00N 37°44' W 008°50'1 1.8
2018-Jun-19 06:30N 37°44' W 008°49'1 1.4
2018-Jun-19 06:00N 37°44' W 008°50'3 5.3
2018-Jun-19 05:30N 37°43' W 008°53'8 6.4
2018-Jun-19 04:13N 37°35' W 008°54'2 5.3
2018-Jun-19 03:47N 37°37' W 008°54'2 6.2
2018-Jun-19 03:30N 37°39' W 008°54'4 2.4
2018-Jun-19 01:41N 37°34' W 008°54'3 5.3
2018-Jun-19 01:13N 37°37' W 008°54'1 5.5
2018-Jun-19 01:00N 37°38' W 008°54'2 3.8
2018-Jun-19 00:28N 37°40' W 008°54'2 3.6
2018-Jun-19 00:00N 37°40' W 008°52'2 4.1
2018-Jun-18 23:30N 37°41' W 008°50'2 4.4
2018-Jun-18 23:00N 37°43' W 008°50'2 4.2
2018-Jun-18 22:30N 37°41' W 008°50'2 4.4
2018-Jun-18 22:01N 37°43' W 008°50'2 4.4
2018-Jun-18 21:31N 37°41' W 008°50'2 4.3
2018-Jun-18 21:01N 37°43' W 008°50'1 2.6
2018-Jun-18 20:30N 37°42' W 008°50'1 1.3
2018-Jun-18 20:00N 37°41' W 008°51'1 1.5
2018-Jun-18 19:30N 37°40' W 008°50'1 2.5
2018-Jun-18 19:00N 37°39' W 008°51'2 3.4
2018-Jun-18 18:28N 37°39' W 008°53'1 3.0
2018-Jun-18 17:59N 37°39' W 008°55'1 3.0
2018-Jun-18 17:30N 37°39' W 008°57'2 3.5
2018-Jun-18 17:00N 37°39' W 008°59'2 3.0
2018-Jun-18 16:31N 37°39' W 009°01'1 2.4
2018-Jun-18 16:00N 37°39' W 009°02'2 3.3
2018-Jun-18 15:30N 37°37' W 009°01'2 3.4
2018-Jun-18 15:00N 37°37' W 008°59'2 3.0
2018-Jun-18 14:28N 37°37' W 008°57'1 2.8
2018-Jun-18 14:00N 37°37' W 008°55'2 3.7
2018-Jun-18 13:30N 37°37' W 008°53'2 2.6
2018-Jun-18 12:43N 37°36' W 008°51'1 2.7
2018-Jun-18 12:30N 37°35' W 008°51'2 3.4
2018-Jun-18 12:00N 37°35' W 008°54'2 3.3
2018-Jun-18 11:29N 37°35' W 008°56'4 3.2
2018-Jun-18 10:11N 37°35' W 009°01'1 4.0
2018-Jun-18 09:56N 37°35' W 009°02'1 2.6
2018-Jun-18 09:30N 37°35' W 009°03'4 3.2
2018-Jun-18 08:24N 37°34' W 008°59'3 3.5
2018-Jun-18 07:36N 37°34' W 008°55'0 3.5
2018-Jun-18 07:30N 37°34' W 008°55'1 1.8
2018-Jun-18 07:00N 37°34' W 008°54'1 2.1
2018-Jun-18 06:30N 37°35' W 008°54'3 5.8
2018-Jun-18 06:00N 37°38' W 008°54'3 5.6
2018-Jun-18 05:30N 37°41' W 008°54'3 6.6
2018-Jun-18 05:00N 37°44' W 008°54'3 5.0
2018-Jun-18 04:28N 37°42' W 008°54'0 0.4
2018-Jun-18 04:00N 37°41' W 008°54'2 5.0
2018-Jun-18 03:31N 37°44' W 008°54'0 0.4
2018-Jun-18 02:59N 37°44' W 008°54'4 5.7
2018-Jun-18 02:22N 37°40' W 008°54'2 4.8
2018-Jun-18 02:00N 37°42' W 008°55'3 6.2
2018-Jun-18 01:30N 37°45' W 008°54'0 0.9
2018-Jun-18 01:00N 37°45' W 008°54'3 5.9
2018-Jun-18 00:26N 37°42' W 008°54'1 2.1
2018-Jun-18 00:00N 37°41' W 008°54'1 2.9
2018-Jun-17 23:30N 37°42' W 008°54'3 5.7
2018-Jun-17 23:00N 37°45' W 008°53'3 4.4
2018-Jun-17 22:21N 37°42' W 008°54'1 4.1
2018-Jun-17 22:00N 37°41' W 008°53'2 3.9
2018-Jun-17 21:30N 37°40' W 008°51'3 5.0
2018-Jun-17 20:56N 37°37' W 008°51'2 3.9
2018-Jun-17 20:26N 37°35' W 008°51'5 2.6
2018-Jun-17 18:28N 37°30' W 008°51'1 3.0
2018-Jun-17 18:00N 37°30' W 008°53'2 3.7
2018-Jun-17 17:28N 37°30' W 008°55'2 3.7
2018-Jun-17 17:00N 37°30' W 008°58'3 1.0
2018-Jun-17 13:41N 37°32' W 008°53'1 3.3
2018-Jun-17 13:24N 37°31' W 008°52'2 3.6
2018-Jun-17 12:44N 37°31' W 008°49'1 2.6
2018-Jun-17 12:31N 37°31' W 008°50'2 2.8
2018-Jun-17 11:56N 37°31' W 008°52'1 2.7
2018-Jun-17 11:30N 37°31' W 008°53'2 3.8
2018-Jun-17 10:59N 37°33' W 008°53'2 3.8
2018-Jun-17 10:31N 37°35' W 008°53'2 3.7
2018-Jun-17 10:01N 37°37' W 008°53'2 3.4
2018-Jun-17 09:30N 37°38' W 008°52'2 3.7
2018-Jun-17 09:00N 37°40' W 008°52'2 3.5
2018-Jun-17 08:30N 37°42' W 008°52'1 2.3
2018-Jun-17 08:00N 37°43' W 008°52'1 2.6
2018-Jun-17 07:30N 37°42' W 008°53'1 2.2
2018-Jun-17 06:59N 37°43' W 008°53'2 3.2
2018-Jun-17 06:30N 37°44' W 008°53'0 0.9
2018-Jun-17 06:00N 37°45' W 008°53'3 4.8
2018-Jun-17 05:20N 37°42' W 008°53'1 4.3
2018-Jun-17 05:01N 37°40' W 008°53'2 4.6
2018-Jun-17 04:30N 37°42' W 008°53'2 4.6
2018-Jun-17 04:00N 37°45' W 008°53'1 1.7
2018-Jun-17 03:24N 37°44' W 008°53'2 4.6
2018-Jun-17 02:55N 37°42' W 008°53'2 5.6
2018-Jun-17 02:30N 37°44' W 008°53'1 1.0
2018-Jun-17 01:58N 37°44' W 008°53'3 4.6
2018-Jun-17 01:22N 37°42' W 008°53'2 4.0
2018-Jun-17 00:59N 37°40' W 008°53'3 5.7
2018-Jun-17 00:31N 37°43' W 008°53'0 0.3
2018-Jun-17 00:01N 37°43' W 008°53'2 4.9
2018-Jun-16 23:30N 37°45' W 008°52'4 4.2
2018-Jun-16 22:39N 37°42' W 008°52'1 4.4
2018-Jun-16 22:23N 37°40' W 008°53'1 3.6
2018-Jun-16 22:00N 37°42' W 008°52'3 6.1
2018-Jun-16 21:30N 37°45' W 008°52'1 1.1
2018-Jun-16 21:00N 37°44' W 008°52'0 0.7
2018-Jun-16 20:30N 37°44' W 008°52'1 1.9
2018-Jun-16 20:00N 37°43' W 008°52'1 2.6
2018-Jun-16 19:30N 37°42' W 008°52'2 3.9
2018-Jun-16 19:00N 37°40' W 008°52'2 3.5
2018-Jun-16 18:30N 37°42' W 008°52'2 4.8
2018-Jun-16 18:00N 37°44' W 008°52'1 1.0
2018-Jun-16 17:30N 37°45' W 008°52'2 4.2
2018-Jun-16 17:00N 37°43' W 008°52'2 4.1
2018-Jun-16 16:30N 37°41' W 008°52'1 1.1
2018-Jun-16 16:00N 37°41' W 008°52'3 5.8
2018-Jun-16 15:30N 37°44' W 008°52'1 2.0
2018-Jun-16 15:00N 37°45' W 008°51'2 3.9
2018-Jun-16 14:30N 37°43' W 008°52'2 3.8
2018-Jun-16 14:00N 37°41' W 008°52'1 3.0
2018-Jun-16 13:30N 37°40' W 008°51'2 3.1
2018-Jun-16 13:00N 37°41' W 008°51'3 5.8
2018-Jun-16 12:30N 37°44' W 008°51'1 2.7
2018-Jun-16 12:01N 37°46' W 008°51'2 3.7
2018-Jun-16 11:30N 37°44' W 008°51'2 3.6
2018-Jun-16 11:00N 37°42' W 008°51'2 3.4
2018-Jun-16 10:26N 37°40' W 008°51'1 3.2
2018-Jun-16 10:00N 37°41' W 008°51'2 4.2
2018-Jun-16 09:30N 37°43' W 008°51'2 4.3
2018-Jun-16 09:00N 37°46' W 008°51'2 3.9
2018-Jun-16 08:26N 37°43' W 008°51'2 4.1
2018-Jun-16 07:58N 37°41' W 008°51'7 4.2
2018-Jun-16 06:24N 37°35' W 008°51'2 3.7
2018-Jun-16 05:57N 37°36' W 008°51'2 4.6
2018-Jun-16 05:30N 37°38' W 008°51'2 4.5
2018-Jun-16 05:00N 37°41' W 008°51'2 4.4
2018-Jun-16 04:30N 37°43' W 008°51'2 4.6
2018-Jun-16 04:01N 37°45' W 008°51'2 3.1
2018-Jun-16 03:30N 37°44' W 008°51'8 4.3
2018-Jun-16 01:44N 37°36' W 008°51'2 2.5
2018-Jun-16 00:55N 37°34' W 008°51'2 5.9
2018-Jun-16 00:30N 37°36' W 008°51'3 5.9
2018-Jun-16 00:00N 37°39' W 008°51'2 3.8
2018-Jun-15 23:30N 37°41' W 008°51'3 6.0
2018-Jun-15 23:00N 37°44' W 008°51'0 0.5
2018-Jun-15 22:29N 37°44' W 008°51'16 3.8
2018-Jun-15 18:17N 37°29' W 008°51'3 3.2
2018-Jun-15 17:16N 37°27' W 008°55'1 1.7
2018-Jun-15 16:34N 37°26' W 008°54'0 1.8
2018-Jun-15 16:30N 37°26' W 008°54'1 2.5
2018-Jun-15 15:59N 37°26' W 008°52'2 3.1
2018-Jun-15 15:11N 37°28' W 008°50'8 2.1
2018-Jun-15 11:12N 37°29' W 008°60'1 2.8
2018-Jun-15 10:58N 37°29' W 008°59'2 2.7
2018-Jun-15 10:23N 37°29' W 008°57'2 3.1
2018-Jun-15 09:53N 37°29' W 008°55'1 3.2
2018-Jun-15 09:29N 37°29' W 008°53'3 3.0
2018-Jun-15 08:27N 37°29' W 008°50'1 2.2
2018-Jun-15 07:53N 37°31' W 008°49'1 1.9
2018-Jun-15 07:29N 37°31' W 008°49'1 2.4
2018-Jun-15 06:57N 37°33' W 008°49'1 1.0
2018-Jun-15 06:25N 37°33' W 008°48'6 2.8
2018-Jun-15 04:22N 37°36' W 008°54'2 5.3
2018-Jun-15 03:56N 37°38' W 008°54'2 5.3
2018-Jun-15 03:30N 37°41' W 008°54'3 5.3
2018-Jun-15 03:00N 37°43' W 008°54'9 3.2
2018-Jun-15 00:19N 37°35' W 008°55'2 5.0
2018-Jun-15 00:00N 37°36' W 008°55'3 5.6
2018-Jun-14 23:31N 37°39' W 008°55'2 4.4
2018-Jun-14 23:00N 37°41' W 008°55'2 4.0
2018-Jun-14 22:30N 37°43' W 008°57'3 5.1
2018-Jun-14 22:01N 37°45' W 008°57'3 4.8
2018-Jun-14 21:28N 37°43' W 008°57'2 4.8
2018-Jun-14 21:00N 37°41' W 008°57'1 2.9
2018-Jun-14 20:30N 37°39' W 008°57'2 3.6
2018-Jun-14 20:01N 37°39' W 008°59'2 4.2
2018-Jun-14 19:30N 37°40' W 009°02'1 1.8
2018-Jun-14 19:00N 37°40' W 009°02'1 2.9
2018-Jun-14 18:30N 37°40' W 008°60'2 3.6
2018-Jun-14 18:00N 37°40' W 008°58'2 3.5
2018-Jun-14 17:30N 37°40' W 008°55'2 3.5
2018-Jun-14 17:00N 37°40' W 008°53'2 3.3
2018-Jun-14 16:30N 37°40' W 008°51'1 2.8
2018-Jun-14 16:00N 37°40' W 008°49'2 3.5
2018-Jun-14 15:30N 37°42' W 008°50'1 2.7
2018-Jun-14 15:00N 37°42' W 008°51'1 2.8
2018-Jun-14 14:31N 37°42' W 008°53'2 3.1
2018-Jun-14 14:00N 37°42' W 008°55'2 3.3
2018-Jun-14 13:29N 37°42' W 008°57'2 3.1
2018-Jun-14 13:00N 37°42' W 008°59'2 3.1
2018-Jun-14 12:30N 37°42' W 009°01'2 3.3
2018-Jun-14 12:00N 37°42' W 009°03'2 3.3
2018-Jun-14 11:30N 37°44' W 009°04'2 3.2
2018-Jun-14 11:00N 37°44' W 009°02'2 3.0
2018-Jun-14 10:30N 37°44' W 008°60'2 3.1
2018-Jun-14 10:00N 37°44' W 008°58'2 3.4
2018-Jun-14 09:30N 37°44' W 008°55'  
Track history (hours):
 
Tides and Currents Weather Stations Pressure Air Temp Water Temp Dewpoint Dewpoint Depression Visibility Wind Speed Wind Dir Waves Ship Positions

Oceanographic research ship Noruega (Portugal)

Detailed information on ship capabilities available from University of Delaware's Ocean Information Center.

Last reported at 2018-Jun-24 09:00 UTC. Time now 2018-Jun-24 09:18 UTC.
Position N 38°42' W 009°14'.

Length 47 m; draft 5.2 m.

Type: Neutral ship in war zone. MMSI: 263601000.

Date/timePositionNaut miles runAvg speedWind from/ knotsBaromVisibWave heightAir tempDewpointWater temp
2018-Jun-24 09:00N 38°42' W 009°14'0 0.0
2018-Jun-24 08:29N 38°42' W 009°14'0 0.0
2018-Jun-24 07:59N 38°42' W 009°14'0 0.0
2018-Jun-24 07:29N 38°42' W 009°14'0 0.0
2018-Jun-24 07:00N 38°42' W 009°14'0 0.0
2018-Jun-24 06:28N 38°42' W 009°14'0 0.0
2018-Jun-24 06:00N 38°42' W 009°14'0 0.0
2018-Jun-24 05:28N 38°42' W 009°14'0 0.0
2018-Jun-24 05:00N 38°42' W 009°14'0 0.0
2018-Jun-24 04:30N 38°42' W 009°14'0 0.0
2018-Jun-24 04:00N 38°42' W 009°14'0 0.0
2018-Jun-24 03:30N 38°42' W 009°14'0 0.0
2018-Jun-24 03:00N 38°42' W 009°14'0 0.0
2018-Jun-24 02:27N 38°42' W 009°14'0 0.0
2018-Jun-24 01:58N 38°42' W 009°14'0 0.0
2018-Jun-24 01:30N 38°42' W 009°14'0 0.0
2018-Jun-24 00:58N 38°42' W 009°14'0 0.0
2018-Jun-24 00:22N 38°42' W 009°14'0 0.0
2018-Jun-24 00:00N 38°42' W 009°14'0 0.0
2018-Jun-23 23:22N 38°42' W 009°14'0 0.0
2018-Jun-23 23:00N 38°42' W 009°14'0 0.0
2018-Jun-23 22:27N 38°42' W 009°14'0 0.0
2018-Jun-23 22:00N 38°42' W 009°14'0 0.0
2018-Jun-23 21:23N 38°42' W 009°14'0 0.0
2018-Jun-23 20:59N 38°42' W 009°14'0 0.0
2018-Jun-23 20:28N 38°42' W 009°14'0 0.0
2018-Jun-23 20:00N 38°42' W 009°14'0 0.0
2018-Jun-23 19:25N 38°42' W 009°14'0 0.0
2018-Jun-23 18:57N 38°42' W 009°14'0 0.0
2018-Jun-23 18:25N 38°42' W 009°14'0 0.0
2018-Jun-23 17:17N 38°42' W 009°14'0 0.0
2018-Jun-23 16:48N 38°42' W 009°14'0 0.0
2018-Jun-23 16:30N 38°42' W 009°14'0 0.0
2018-Jun-23 15:59N 38°42' W 009°14'0 0.0
2018-Jun-23 15:26N 38°42' W 009°14'0 0.0
2018-Jun-23 14:53N 38°42' W 009°14'0 0.0
2018-Jun-23 14:29N 38°42' W 009°14'0 0.0
2018-Jun-23 13:59N 38°42' W 009°14'0 0.0
2018-Jun-23 13:29N 38°42' W 009°14'0 0.0
2018-Jun-23 13:00N 38°42' W 009°14'0 0.0
2018-Jun-23 12:29N 38°42' W 009°14'0 0.0
2018-Jun-23 12:00N 38°42' W 009°14'3 5.2
2018-Jun-23 11:29N 38°41' W 009°17'4 9.0
2018-Jun-23 11:00N 38°38' W 009°21'4 6.9
2018-Jun-23 10:28N 38°39' W 009°26'2 4.9
2018-Jun-23 10:00N 38°41' W 009°24'0 0.1
2018-Jun-23 09:30N 38°41' W 009°24'0 0.0
2018-Jun-23 09:00N 38°41' W 009°24'0 0.0
2018-Jun-23 08:30N 38°41' W 009°24'0 0.0
2018-Jun-23 08:00N 38°41' W 009°24'0 0.0
2018-Jun-23 07:30N 38°41' W 009°24'0 0.0
2018-Jun-23 07:00N 38°41' W 009°24'0 0.0
2018-Jun-23 06:30N 38°41' W 009°24'0 0.1
2018-Jun-23 06:00N 38°41' W 009°24'2 3.7
2018-Jun-23 05:30N 38°39' W 009°25'1 1.7
2018-Jun-23 05:00N 38°39' W 009°26'1 1.6
2018-Jun-23 04:30N 38°38' W 009°26'1 1.7
2018-Jun-23 04:00N 38°38' W 009°27'0 0.4
2018-Jun-23 03:30N 38°39' W 009°28'0 0.2
2018-Jun-23 03:00N 38°39' W 009°27'0 0.6
2018-Jun-23 02:30N 38°39' W 009°27'0 0.7
2018-Jun-23 02:00N 38°39' W 009°27'1 1.0
2018-Jun-23 01:30N 38°39' W 009°27'1 2.0
2018-Jun-23 01:00N 38°38' W 009°25'1 1.4
2018-Jun-23 00:30N 38°39' W 009°26'1 1.2
2018-Jun-23 00:00N 38°39' W 009°26'2 4.3
2018-Jun-22 23:30N 38°38' W 009°25'2 4.8
2018-Jun-22 23:00N 38°36' W 009°22'3 6.1
2018-Jun-22 22:30N 38°35' W 009°18'1 2.8
2018-Jun-22 22:00N 38°36' W 009°17'2 3.6
2018-Jun-22 21:28N 38°36' W 009°19'2 4.1
2018-Jun-22 21:00N 38°36' W 009°17'2 3.8
2018-Jun-22 20:29N 38°36' W 009°19'1 2.8
2018-Jun-22 19:58N 38°36' W 009°17'1 2.3
2018-Jun-22 19:30N 38°35' W 009°19'1 1.9
2018-Jun-22 18:59N 38°35' W 009°17'1 1.2
2018-Jun-22 18:29N 38°35' W 009°18'1 1.1
2018-Jun-22 17:57N 38°35' W 009°19'0 0.6
2018-Jun-22 17:30N 38°35' W 009°19'0 0.8
2018-Jun-22 17:00N 38°35' W 009°18'2 4.4
2018-Jun-22 16:30N 38°33' W 009°18'0 0.7
2018-Jun-22 16:00N 38°33' W 009°18'1 2.7
2018-Jun-22 15:30N 38°34' W 009°19'2 3.7
2018-Jun-22 14:59N 38°36' W 009°19'2 2.9
2018-Jun-22 14:27N 38°38' W 009°18'1 3.0
2018-Jun-22 13:58N 38°36' W 009°18'2 3.1
2018-Jun-22 13:28N 38°35' W 009°17'1 3.0
2018-Jun-22 12:58N 38°36' W 009°17'0 0.6
2018-Jun-22 12:29N 38°36' W 009°17'0 0.6
2018-Jun-22 12:00N 38°36' W 009°17'0 0.7
2018-Jun-22 11:25N 38°36' W 009°17'0 1.0
2018-Jun-22 11:00N 38°36' W 009°17'0 0.6
2018-Jun-22 10:30N 38°36' W 009°18'1 1.7
2018-Jun-22 09:59N 38°35' W 009°18'1 2.3
2018-Jun-22 09:28N 38°36' W 009°18'2 3.4
2018-Jun-22 09:00N 38°35' W 009°18'2 3.3
2018-Jun-22 08:30N 38°36' W 009°19'1 2.1
2018-Jun-22 08:00N 38°35' W 009°19'0 0.6
2018-Jun-22 07:29N 38°35' W 009°19'1 1.5
2018-Jun-22 07:00N 38°35' W 009°18'0 0.3
2018-Jun-22 06:28N 38°36' W 009°18'1 1.1
2018-Jun-22 05:59N 38°36' W 009°18'1 1.1
2018-Jun-22 05:30N 38°36' W 009°18'1 2.3
2018-Jun-22 04:59N 38°36' W 009°19'2 3.9
2018-Jun-22 04:30N 38°36' W 009°17'2 4.6
2018-Jun-22 04:00N 38°36' W 009°20'3 4.9
2018-Jun-22 03:28N 38°36' W 009°16'1 1.2
2018-Jun-22 03:01N 38°36' W 009°17'2 3.5
2018-Jun-22 02:30N 38°36' W 009°19'1 2.3
2018-Jun-22 01:56N 38°36' W 009°17'1 1.3
2018-Jun-22 01:25N 38°36' W 009°18'1 1.2
2018-Jun-22 01:00N 38°36' W 009°18'0 0.7
2018-Jun-22 00:30N 38°36' W 009°18'0 0.2
2018-Jun-21 23:59N 38°36' W 009°18'0 0.3
2018-Jun-21 23:26N 38°36' W 009°18'1 1.4
2018-Jun-21 22:58N 38°35' W 009°19'1 2.0
2018-Jun-21 22:30N 38°35' W 009°17'1 2.0
2018-Jun-21 22:00N 38°35' W 009°19'1 1.3
2018-Jun-21 21:30N 38°35' W 009°18'1 1.7
2018-Jun-21 20:59N 38°34' W 009°18'0 0.0
2018-Jun-21 20:30N 38°34' W 009°18'1 3.0
2018-Jun-21 20:00N 38°35' W 009°19'1 2.9
2018-Jun-21 19:30N 38°36' W 009°20'1 1.9
2018-Jun-21 19:00N 38°36' W 009°19'1 2.7
2018-Jun-21 18:30N 38°35' W 009°19'2 3.9
2018-Jun-21 18:00N 38°36' W 009°19'2 3.0
2018-Jun-21 17:30N 38°35' W 009°19'1 2.4
2018-Jun-21 16:59N 38°36' W 009°18'1 1.3
2018-Jun-21 16:31N 38°36' W 009°18'0 0.6
2018-Jun-21 16:00N 38°36' W 009°18'1 2.3
2018-Jun-21 15:30N 38°36' W 009°17'1 1.6
2018-Jun-21 15:00N 38°36' W 009°17'2 3.7
2018-Jun-21 14:30N 38°36' W 009°20'1 1.9
2018-Jun-21 14:00N 38°36' W 009°19'2 3.3
2018-Jun-21 13:30N 38°36' W 009°17'1 1.5
2018-Jun-21 13:00N 38°35' W 009°17'2 3.6
2018-Jun-21 12:29N 38°35' W 009°20'1 2.4
2018-Jun-21 11:59N 38°35' W 009°18'2 3.0
2018-Jun-21 11:29N 38°36' W 009°16'1 2.7
2018-Jun-21 11:00N 38°36' W 009°18'1 2.6
2018-Jun-21 10:29N 38°36' W 009°20'1 2.7
2018-Jun-21 09:59N 38°36' W 009°18'1 3.0
2018-Jun-21 09:30N 38°36' W 009°16'2 3.1
2018-Jun-21 09:00N 38°36' W 009°18'2 3.3
2018-Jun-21 08:30N 38°36' W 009°20'1 2.2
2018-Jun-21 08:00N 38°36' W 009°22'1 2.1
2018-Jun-21 07:30N 38°35' W 009°20'2 3.2
2018-Jun-21 07:00N 38°34' W 009°19'1 2.7
2018-Jun-21 06:30N 38°34' W 009°17'1 1.2
2018-Jun-21 06:00N 38°34' W 009°17'1 1.0
2018-Jun-21 05:30N 38°33' W 009°17'1 2.8
2018-Jun-21 05:00N 38°32' W 009°17'2 3.2
2018-Jun-21 04:30N 38°30' W 009°17'2 4.0
2018-Jun-21 04:00N 38°28' W 009°17'3 6.1
2018-Jun-21 03:30N 38°25' W 009°16'3 5.9
2018-Jun-21 03:00N 38°22' W 009°15'3 5.9
2018-Jun-21 02:30N 38°19' W 009°14'3 5.8
2018-Jun-21 01:59N 38°17' W 009°13'3 5.8
2018-Jun-21 01:30N 38°14' W 009°11'3 6.0
2018-Jun-21 01:00N 38°11' W 009°10'3 5.9
2018-Jun-21 00:30N 38°09' W 009°08'3 5.8
2018-Jun-21 00:00N 38°06' W 009°06'3 6.2
2018-Jun-20 23:30N 38°04' W 009°04'3 6.4
2018-Jun-20 23:00N 38°01' W 009°02'3 6.6
2018-Jun-20 22:30N 37°58' W 008°60'3 6.2
2018-Jun-20 22:00N 37°55' W 008°59'3 6.1
2018-Jun-20 21:30N 37°52' W 008°57'3 6.4
2018-Jun-20 21:00N 37°50' W 008°55'3 6.1
2018-Jun-20 20:30N 37°47' W 008°53'3 5.9
2018-Jun-20 20:00N 37°45' W 008°51'2 3.2
2018-Jun-20 19:31N 37°43' W 008°50'3 4.7
2018-Jun-20 18:58N 37°41' W 008°50'2 4.8
2018-Jun-20 18:30N 37°43' W 008°50'2 4.7
2018-Jun-20 18:00N 37°41' W 008°50'2 4.9
2018-Jun-20 17:30N 37°43' W 008°50'2 4.7
2018-Jun-20 17:01N 37°45' W 008°50'2 3.5
2018-Jun-20 16:30N 37°47' W 008°50'2 3.7
2018-Jun-20 16:01N 37°49' W 008°51'2 4.7
2018-Jun-20 15:30N 37°51' W 008°51'2 4.6
2018-Jun-20 15:00N 37°53' W 008°51'1 2.2
2018-Jun-20 14:30N 37°54' W 008°52'3 5.0
2018-Jun-20 14:00N 37°52' W 008°52'2 4.7
2018-Jun-20 13:30N 37°49' W 008°52'1 2.1
2018-Jun-20 13:00N 37°48' W 008°52'2 3.4
2018-Jun-20 12:30N 37°48' W 008°54'1 2.8
2018-Jun-20 12:00N 37°48' W 008°56'2 3.4
2018-Jun-20 11:30N 37°48' W 008°58'2 3.4
2018-Jun-20 11:00N 37°48' W 008°60'2 3.3
2018-Jun-20 10:30N 37°48' W 009°02'1 2.4
2018-Jun-20 10:00N 37°48' W 009°03'2 4.0
2018-Jun-20 09:30N 37°47' W 009°01'2 3.7
2018-Jun-20 09:00N 37°46' W 008°59'2 3.9
2018-Jun-20 08:30N 37°46' W 008°57'2 3.5
2018-Jun-20 08:00N 37°46' W 008°54'2 3.5
2018-Jun-20 07:30N 37°46' W 008°52'1 2.9
2018-Jun-20 07:01N 37°46' W 008°50'0 0.4
2018-Jun-20 06:30N 37°46' W 008°50'1 1.7
2018-Jun-20 05:59N 37°47' W 008°50'1 2.5
2018-Jun-20 05:30N 37°46' W 008°50'1 2.5
2018-Jun-20 05:00N 37°47' W 008°50'1 2.5
2018-Jun-20 04:30N 37°46' W 008°50'1 2.6
2018-Jun-20 04:00N 37°47' W 008°51'1 2.1
2018-Jun-20 03:30N 37°46' W 008°51'1 1.8
2018-Jun-20 03:00N 37°47' W 008°51'0 0.7
2018-Jun-20 02:30N 37°47' W 008°51'0 0.8
2018-Jun-20 02:00N 37°47' W 008°51'1 1.7
2018-Jun-20 01:30N 37°46' W 008°51'2 4.4
2018-Jun-20 01:00N 37°49' W 008°52'3 5.2
2018-Jun-20 00:29N 37°46' W 008°51'2 4.8
2018-Jun-20 00:00N 37°48' W 008°52'0 0.3
2018-Jun-19 23:30N 37°48' W 008°52'3 5.1
2018-Jun-19 23:01N 37°46' W 008°52'3 5.2
2018-Jun-19 22:30N 37°48' W 008°52'0 1.0
2018-Jun-19 22:00N 37°49' W 008°52'3 5.0
2018-Jun-19 21:27N 37°46' W 008°52'2 4.3
2018-Jun-19 21:00N 37°46' W 008°54'3 5.2
2018-Jun-19 20:30N 37°46' W 008°58'2 4.3
2018-Jun-19 20:00N 37°45' W 009°00'1 1.1
2018-Jun-19 19:30N 37°45' W 009°01'1 2.2
2018-Jun-19 19:00N 37°45' W 009°00'2 3.8
2018-Jun-19 18:30N 37°47' W 009°00'2 3.6
2018-Jun-19 18:00N 37°49' W 009°00'2 3.5
2018-Jun-19 17:30N 37°51' W 008°60'2 3.7
2018-Jun-19 17:01N 37°53' W 008°60'2 3.7
2018-Jun-19 16:30N 37°55' W 008°60'2 3.6
2018-Jun-19 16:00N 37°56' W 008°60'2 3.5
2018-Jun-19 15:30N 37°58' W 009°00'2 3.5
2018-Jun-19 15:00N 37°60' W 008°60'1 2.0
2018-Jun-19 14:30N 38°01' W 008°59'2 3.6
2018-Jun-19 14:00N 38°01' W 008°57'1 2.7
2018-Jun-19 13:30N 38°00' W 008°55'2 3.1
2018-Jun-19 13:00N 37°59' W 008°55'2 3.0
2018-Jun-19 12:30N 37°57' W 008°56'1 2.9
2018-Jun-19 12:00N 37°56' W 008°55'2 3.0
2018-Jun-19 11:30N 37°54' W 008°55'2 3.3
2018-Jun-19 11:00N 37°53' W 008°55'2 3.4
2018-Jun-19 10:30N 37°51' W 008°55'2 3.4
2018-Jun-19 10:00N 37°49' W 008°55'2 3.3
2018-Jun-19 09:30N 37°48' W 008°55'1 2.8
2018-Jun-19 09:00N 37°46' W 008°55'1 2.6
2018-Jun-19 08:31N 37°46' W 008°54'1 2.5
2018-Jun-19 08:00N 37°45' W 008°52'1 1.9
2018-Jun-19 07:30N 37°45' W 008°51'1 2.4
2018-Jun-19 07:00N 37°44' W 008°50'1 1.8
2018-Jun-19 06:30N 37°44' W 008°49'1 1.4
2018-Jun-19 06:00N 37°44' W 008°50'3 5.3
2018-Jun-19 05:30N 37°43' W 008°53'8 6.4
2018-Jun-19 04:13N 37°35' W 008°54'2 5.3
2018-Jun-19 03:47N 37°37' W 008°54'2 6.2
2018-Jun-19 03:30N 37°39' W 008°54'4 2.4
2018-Jun-19 01:41N 37°34' W 008°54'3 5.3
2018-Jun-19 01:13N 37°37' W 008°54'1 5.5
2018-Jun-19 01:00N 37°38' W 008°54'2 3.8
2018-Jun-19 00:28N 37°40' W 008°54'2 3.6
2018-Jun-19 00:00N 37°40' W 008°52'2 4.1
2018-Jun-18 23:30N 37°41' W 008°50'2 4.4
2018-Jun-18 23:00N 37°43' W 008°50'2 4.2
2018-Jun-18 22:30N 37°41' W 008°50'2 4.4
2018-Jun-18 22:01N 37°43' W 008°50'2 4.4
2018-Jun-18 21:31N 37°41' W 008°50'2 4.3
2018-Jun-18 21:01N 37°43' W 008°50'1 2.6
2018-Jun-18 20:30N 37°42' W 008°50'1 1.3
2018-Jun-18 20:00N 37°41' W 008°51'1 1.5
2018-Jun-18 19:30N 37°40' W 008°50'1 2.5
2018-Jun-18 19:00N 37°39' W 008°51'2 3.4
2018-Jun-18 18:28N 37°39' W 008°53'1 3.0
2018-Jun-18 17:59N 37°39' W 008°55'1 3.0
2018-Jun-18 17:30N 37°39' W 008°57'2 3.5
2018-Jun-18 17:00N 37°39' W 008°59'2 3.0
2018-Jun-18 16:31N 37°39' W 009°01'1 2.4
2018-Jun-18 16:00N 37°39' W 009°02'2 3.3
2018-Jun-18 15:30N 37°37' W 009°01'2 3.4
2018-Jun-18 15:00N 37°37' W 008°59'2 3.0
2018-Jun-18 14:28N 37°37' W 008°57'1 2.8
2018-Jun-18 14:00N 37°37' W 008°55'2 3.7
2018-Jun-18 13:30N 37°37' W 008°53'2 2.6
2018-Jun-18 12:43N 37°36' W 008°51'1 2.7
2018-Jun-18 12:30N 37°35' W 008°51'2 3.4
2018-Jun-18 12:00N 37°35' W 008°54'2 3.3
2018-Jun-18 11:29N 37°35' W 008°56'4 3.2
2018-Jun-18 10:11N 37°35' W 009°01'1 4.0
2018-Jun-18 09:56N 37°35' W 009°02'1 2.6
2018-Jun-18 09:30N 37°35' W 009°03'4 3.2
2018-Jun-18 08:24N 37°34' W 008°59'3 3.5
2018-Jun-18 07:36N 37°34' W 008°55'0 3.5
2018-Jun-18 07:30N 37°34' W 008°55'1 1.8
2018-Jun-18 07:00N 37°34' W 008°54'1 2.1
2018-Jun-18 06:30N 37°35' W 008°54'3 5.8
2018-Jun-18 06:00N 37°38' W 008°54'3 5.6
2018-Jun-18 05:30N 37°41' W 008°54'3 6.6
2018-Jun-18 05:00N 37°44' W 008°54'3 5.0
2018-Jun-18 04:28N 37°42' W 008°54'0 0.4
2018-Jun-18 04:00N 37°41' W 008°54'2 5.0
2018-Jun-18 03:31N 37°44' W 008°54'0 0.4
2018-Jun-18 02:59N 37°44' W 008°54'4 5.7
2018-Jun-18 02:22N 37°40' W 008°54'2 4.8
2018-Jun-18 02:00N 37°42' W 008°55'3 6.2
2018-Jun-18 01:30N 37°45' W 008°54'0 0.9
2018-Jun-18 01:00N 37°45' W 008°54'3 5.9
2018-Jun-18 00:26N 37°42' W 008°54'1 2.1
2018-Jun-18 00:00N 37°41' W 008°54'1 2.9
2018-Jun-17 23:30N 37°42' W 008°54'3 5.7
2018-Jun-17 23:00N 37°45' W 008°53'3 4.4
2018-Jun-17 22:21N 37°42' W 008°54'1 4.1
2018-Jun-17 22:00N 37°41' W 008°53'2 3.9
2018-Jun-17 21:30N 37°40' W 008°51'3 5.0
2018-Jun-17 20:56N 37°37' W 008°51'2 3.9
2018-Jun-17 20:26N 37°35' W 008°51'5 2.6
2018-Jun-17 18:28N 37°30' W 008°51'1 3.0
2018-Jun-17 18:00N 37°30' W 008°53'2 3.7
2018-Jun-17 17:28N 37°30' W 008°55'2 3.7
2018-Jun-17 17:00N 37°30' W 008°58'3 1.0
2018-Jun-17 13:41N 37°32' W 008°53'1 3.3
2018-Jun-17 13:24N 37°31' W 008°52'2 3.6
2018-Jun-17 12:44N 37°31' W 008°49'1 2.6
2018-Jun-17 12:31N 37°31' W 008°50'2 2.8
2018-Jun-17 11:56N 37°31' W 008°52'1 2.7
2018-Jun-17 11:30N 37°31' W 008°53'2 3.8
2018-Jun-17 10:59N 37°33' W 008°53'2 3.8
2018-Jun-17 10:31N 37°35' W 008°53'2 3.7
2018-Jun-17 10:01N 37°37' W 008°53'2 3.4
2018-Jun-17 09:30N 37°38' W 008°52'2 3.7
2018-Jun-17 09:00N 37°40' W 008°52'2 3.5
2018-Jun-17 08:30N 37°42' W 008°52'1 2.3
2018-Jun-17 08:00N 37°43' W 008°52'1 2.6
2018-Jun-17 07:30N 37°42' W 008°53'1 2.2
2018-Jun-17 06:59N 37°43' W 008°53'2 3.2
2018-Jun-17 06:30N 37°44' W 008°53'0 0.9
2018-Jun-17 06:00N 37°45' W 008°53'3 4.8
2018-Jun-17 05:20N 37°42' W 008°53'1 4.3
2018-Jun-17 05:01N 37°40' W 008°53'2 4.6
2018-Jun-17 04:30N 37°42' W 008°53'2 4.6
2018-Jun-17 04:00N 37°45' W 008°53'1 1.7
2018-Jun-17 03:24N 37°44' W 008°53'2 4.6
2018-Jun-17 02:55N 37°42' W 008°53'2 5.6
2018-Jun-17 02:30N 37°44' W 008°53'1 1.0
2018-Jun-17 01:58N 37°44' W 008°53'3 4.6
2018-Jun-17 01:22N 37°42' W 008°53'2 4.0
2018-Jun-17 00:59N 37°40' W 008°53'3 5.7
2018-Jun-17 00:31N 37°43' W 008°53'0 0.3
2018-Jun-17 00:01N 37°43' W 008°53'2 4.9
2018-Jun-16 23:30N 37°45' W 008°52'4 4.2
2018-Jun-16 22:39N 37°42' W 008°52'1 4.4
2018-Jun-16 22:23N 37°40' W 008°53'1 3.6
2018-Jun-16 22:00N 37°42' W 008°52'3 6.1
2018-Jun-16 21:30N 37°45' W 008°52'1 1.1
2018-Jun-16 21:00N 37°44' W 008°52'0 0.7
2018-Jun-16 20:30N 37°44' W 008°52'1 1.9
2018-Jun-16 20:00N 37°43' W 008°52'1 2.6
2018-Jun-16 19:30N 37°42' W 008°52'2 3.9
2018-Jun-16 19:00N 37°40' W 008°52'2 3.5
2018-Jun-16 18:30N 37°42' W 008°52'2 4.8
2018-Jun-16 18:00N 37°44' W 008°52'1 1.0
2018-Jun-16 17:30N 37°45' W 008°52'2 4.2
2018-Jun-16 17:00N 37°43' W 008°52'2 4.1
2018-Jun-16 16:30N 37°41' W 008°52'1 1.1
2018-Jun-16 16:00N 37°41' W 008°52'3 5.8
2018-Jun-16 15:30N 37°44' W 008°52'1 2.0
2018-Jun-16 15:00N 37°45' W 008°51'2 3.9
2018-Jun-16 14:30N 37°43' W 008°52'2 3.8
2018-Jun-16 14:00N 37°41' W 008°52'1 3.0
2018-Jun-16 13:30N 37°40' W 008°51'2 3.1
2018-Jun-16 13:00N 37°41' W 008°51'3 5.8
2018-Jun-16 12:30N 37°44' W 008°51'1 2.7
2018-Jun-16 12:01N 37°46' W 008°51'2 3.7
2018-Jun-16 11:30N 37°44' W 008°51'2 3.6
2018-Jun-16 11:00N 37°42' W 008°51'2 3.4
2018-Jun-16 10:26N 37°40' W 008°51'1 3.2
2018-Jun-16 10:00N 37°41' W 008°51'2 4.2
2018-Jun-16 09:30N 37°43' W 008°51'2 4.3
2018-Jun-16 09:00N 37°46' W 008°51'2 3.9
2018-Jun-16 08:26N 37°43' W 008°51'2 4.1
2018-Jun-16 07:58N 37°41' W 008°51'7 4.2
2018-Jun-16 06:24N 37°35' W 008°51'2 3.7
2018-Jun-16 05:57N 37°36' W 008°51'2 4.6
2018-Jun-16 05:30N 37°38' W 008°51'2 4.5
2018-Jun-16 05:00N 37°41' W 008°51'2 4.4
2018-Jun-16 04:30N 37°43' W 008°51'2 4.6
2018-Jun-16 04:01N 37°45' W 008°51'2 3.1
2018-Jun-16 03:30N 37°44' W 008°51'8 4.3
2018-Jun-16 01:44N 37°36' W 008°51'2 2.5
2018-Jun-16 00:55N 37°34' W 008°51'2 5.9
2018-Jun-16 00:30N 37°36' W 008°51'3 5.9
2018-Jun-16 00:00N 37°39' W 008°51'2 3.8
2018-Jun-15 23:30N 37°41' W 008°51'3 6.0
2018-Jun-15 23:00N 37°44' W 008°51'0 0.5
2018-Jun-15 22:29N 37°44' W 008°51'16 3.8
2018-Jun-15 18:17N 37°29' W 008°51'3 3.2
2018-Jun-15 17:16N 37°27' W 008°55'1 1.7
2018-Jun-15 16:34N 37°26' W 008°54'0 1.8
2018-Jun-15 16:30N 37°26' W 008°54'1 2.5
2018-Jun-15 15:59N 37°26' W 008°52'2 3.1
2018-Jun-15 15:11N 37°28' W 008°50'8 2.1
2018-Jun-15 11:12N 37°29' W 008°60'1 2.8
2018-Jun-15 10:58N 37°29' W 008°59'2 2.7
2018-Jun-15 10:23N 37°29' W 008°57'2 3.1
2018-Jun-15 09:53N 37°29' W 008°55'1 3.2
2018-Jun-15 09:29N 37°29' W 008°53'3 3.0
2018-Jun-15 08:27N 37°29' W 008°50'1 2.2
2018-Jun-15 07:53N 37°31' W 008°49'1 1.9
2018-Jun-15 07:29N 37°31' W 008°49'1 2.4
2018-Jun-15 06:57N 37°33' W 008°49'1 1.0
2018-Jun-15 06:25N 37°33' W 008°48'6 2.8
2018-Jun-15 04:22N 37°36' W 008°54'2 5.3
2018-Jun-15 03:56N 37°38' W 008°54'2 5.3
2018-Jun-15 03:30N 37°41' W 008°54'3 5.3
2018-Jun-15 03:00N 37°43' W 008°54'9 3.2
2018-Jun-15 00:19N 37°35' W 008°55'2 5.0
2018-Jun-15 00:00N 37°36' W 008°55'3 5.6
2018-Jun-14 23:31N 37°39' W 008°55'2 4.4
2018-Jun-14 23:00N 37°41' W 008°55'2 4.0
2018-Jun-14 22:30N 37°43' W 008°57'3 5.1
2018-Jun-14 22:01N 37°45' W 008°57'3 4.8
2018-Jun-14 21:28N 37°43' W 008°57'2 4.8
2018-Jun-14 21:00N 37°41' W 008°57'1 2.9
2018-Jun-14 20:30N 37°39' W 008°57'2 3.6
2018-Jun-14 20:01N 37°39' W 008°59'2 4.2
2018-Jun-14 19:30N 37°40' W 009°02'1 1.8
2018-Jun-14 19:00N 37°40' W 009°02'1 2.9
2018-Jun-14 18:30N 37°40' W 008°60'2 3.6
2018-Jun-14 18:00N 37°40' W 008°58'2 3.5
2018-Jun-14 17:30N 37°40' W 008°55'2 3.5
2018-Jun-14 17:00N 37°40' W 008°53'2 3.3
2018-Jun-14 16:30N 37°40' W 008°51'1 2.8
2018-Jun-14 16:00N 37°40' W 008°49'2 3.5
2018-Jun-14 15:30N 37°42' W 008°50'1 2.7
2018-Jun-14 15:00N 37°42' W 008°51'1 2.8
2018-Jun-14 14:31N 37°42' W 008°53'2 3.1
2018-Jun-14 14:00N 37°42' W 008°55'2 3.3
2018-Jun-14 13:29N 37°42' W 008°57'2 3.1
2018-Jun-14 13:00N 37°42' W 008°59'2 3.1
2018-Jun-14 12:30N 37°42' W 009°01'2 3.3
2018-Jun-14 12:00N 37°42' W 009°03'2 3.3
2018-Jun-14 11:30N 37°44' W 009°04'2 3.2
2018-Jun-14 11:00N 37°44' W 009°02'2 3.0
2018-Jun-14 10:30N 37°44' W 008°60'2 3.1
2018-Jun-14 10:00N 37°44' W 008°58'2 3.4
2018-Jun-14 09:30N 37°44' W 008°55'  

Dump ship's entire track history